Time;durP1;ratioP1;P1;durP2;ratioP2;P2;SDS_P1;SDS_P2;PMS_P1;PMS_P2;Temp;Humidity;BMP_temperature;BMP_pressure;BME280_temperature;BME280_humidity;BME280_pressure;Samples;Min_cycle;Max_cycle;Signal;HPM_P1;HPM_P2
2022/08/25 00:01:53;;;;;;;29.02;26.08;;;21.10;99.90;;;;;;6218221;23;20012;-89
2022/08/25 00:04:20;;;;;;;29.17;26.10;;;21.00;99.90;;;;;;6243506;22;20063;-89
2022/08/25 00:06:47;;;;;;;26.45;23.80;;;21.00;99.90;;;;;;6218708;23;20012;-89
2022/08/25 00:09:16;;;;;;;28.55;25.50;;;21.00;99.90;;;;;;6193085;23;20012;-89
2022/08/25 00:57:30;;;;;;;31.65;28.60;;;20.40;99.90;;;;;;6242537;22;20042;-89
2022/08/25 00:59:57;;;;;;;32.03;28.35;;;20.40;99.90;;;;;;6217130;23;20024;-88
2022/08/25 01:02:22;;;;;;;31.23;28.33;;;20.40;99.90;;;;;;6216888;22;20035;-88
2022/08/25 01:04:48;;;;;;;29.95;26.85;;;20.40;99.90;;;;;;6250829;22;20019;-89
2022/08/25 01:07:15;;;;;;;29.88;26.73;;;20.30;99.90;;;;;;6246975;22;20514;-88
2022/08/25 01:09:42;;;;;;;30.05;27.25;;;20.30;99.90;;;;;;6270668;22;20079;-87
2022/08/25 01:12:09;;;;;;;30.65;27.63;;;20.20;99.90;;;;;;6270940;22;20027;-87
2022/08/25 01:14:36;;;;;;;30.75;27.52;;;20.20;99.90;;;;;;6271877;22;20069;-87
2022/08/25 01:17:02;;;;;;;26.95;24.15;;;20.20;99.90;;;;;;6271451;22;20015;-86
2022/08/25 01:19:30;;;;;;;28.08;25.25;;;20.20;99.90;;;;;;6271812;22;20061;-88
2022/08/25 01:21:56;;;;;;;30.33;25.77;;;20.20;99.90;;;;;;6272150;22;20032;-87
2022/08/25 01:24:36;;;;;;;29.75;26.60;;;20.10;99.90;;;;;;6272287;22;20012;-87
2022/08/25 02:56:51;;;;;;;20.05;14.80;;;19.20;99.90;;;;;;6250495;22;20028;-89
2022/08/25 02:59:17;;;;;;;18.05;14.90;;;19.10;99.90;;;;;;6264927;22;20019;-88
2022/08/25 03:01:43;;;;;;;15.75;11.98;;;19.20;99.90;;;;;;6247417;22;20016;-88
2022/08/25 03:04:09;;;;;;;15.93;12.82;;;19.20;99.90;;;;;;6245221;22;20019;-89
2022/08/25 03:06:34;;;;;;;18.40;13.38;;;19.10;99.90;;;;;;6245958;22;20015;-89
2022/08/25 03:09:00;;;;;;;15.98;14.07;;;19.20;99.90;;;;;;6271982;22;20019;-88
2022/08/25 04:10:32;;;;;;;12.52;5.22;;;19.10;99.90;;;;;;6227738;22;20086;31
2022/08/25 04:42:18;;;;;;;7.03;4.65;;;19.30;99.90;;;;;;6256678;22;20024;-84
2022/08/25 04:44:43;;;;;;;9.27;5.00;;;19.30;99.90;;;;;;6253757;22;20333;-84
2022/08/25 04:47:09;;;;;;;7.45;4.80;;;19.30;99.90;;;;;;6228213;22;20445;-85
2022/08/25 04:49:36;;;;;;;8.27;4.63;;;19.30;99.90;;;;;;6227061;22;20004;-84
2022/08/25 04:52:02;;;;;;;7.40;5.07;;;19.30;99.90;;;;;;6253268;22;20016;-86
2022/08/25 04:54:27;;;;;;;7.97;3.97;;;19.20;99.90;;;;;;6229180;22;20003;-84
2022/08/25 05:32:36;;;;;;;9.40;4.88;;;19.60;99.90;;;;;;6257072;22;20054;-88
2022/08/25 05:35:03;;;;;;;7.32;4.30;;;19.70;99.90;;;;;;6246380;22;20020;-89
2022/08/25 05:37:29;;;;;;;8.30;4.25;;;19.80;99.90;;;;;;6273613;22;20008;-87
2022/08/25 05:39:54;;;;;;;8.77;3.90;;;19.80;99.90;;;;;;6274337;22;20031;-87
2022/08/25 06:03:03;;;;;;;7.82;4.57;;;20.70;99.90;;;;;;6204823;22;20023;-93
2022/08/25 06:05:31;;;;;;;6.50;4.65;;;20.80;99.90;;;;;;6225795;22;20076;-92
2022/08/25 06:07:57;;;;;;;10.32;4.32;;;20.90;99.90;;;;;;6224374;22;20042;-91
2022/08/25 06:10:22;;;;;;;7.47;4.47;;;21.00;99.90;;;;;;6250482;22;20031;-92
2022/08/25 06:12:48;;;;;;;7.97;4.30;;;21.10;99.90;;;;;;6224953;22;20008;-92
2022/08/25 06:15:20;;;;;;;6.93;4.13;;;21.20;99.90;;;;;;6207894;22;20015;-92
2022/08/25 06:17:46;;;;;;;6.55;3.92;;;21.30;99.90;;;;;;6206739;22;20016;-91
2022/08/25 06:20:22;;;;;;;7.50;4.70;;;21.40;99.90;;;;;;6223510;22;20011;-92
2022/08/25 06:22:49;;;;;;;7.30;3.78;;;21.50;99.90;;;;;;6227068;22;20348;-92
2022/08/25 06:25:18;;;;;;;11.05;4.50;;;21.60;99.90;;;;;;6211700;22;20035;-92
2022/08/25 06:27:45;;;;;;;9.20;4.13;;;21.70;99.90;;;;;;6252700;22;20042;-93
2022/08/25 06:30:18;;;;;;;6.70;4.38;;;21.80;99.90;;;;;;6249792;22;20030;-90
2022/08/25 06:32:44;;;;;;;11.07;4.43;;;21.90;99.90;;;;;;6225895;22;20027;-90
2022/08/25 06:35:15;;;;;;;6.72;4.18;;;22.00;99.90;;;;;;6250796;22;20019;-89
2022/08/25 06:37:42;;;;;;;4.13;3.60;;;22.10;99.90;;;;;;6226006;22;20008;-88
2022/08/25 06:40:09;;;;;;;5.95;4.97;;;22.20;99.90;;;;;;6250661;22;20041;-89
2022/08/25 06:42:36;;;;;;;7.82;4.55;;;22.30;99.90;;;;;;6226166;22;20011;-89
2022/08/25 06:45:02;;;;;;;8.40;4.05;;;22.40;99.90;;;;;;6224813;22;20011;-89
2022/08/25 06:47:28;;;;;;;8.93;4.65;;;22.50;99.90;;;;;;6225125;22;20093;-89
2022/08/25 06:49:54;;;;;;;7.30;4.15;;;22.60;99.90;;;;;;6250766;22;20003;-93
2022/08/25 06:52:20;;;;;;;9.02;3.97;;;22.60;99.90;;;;;;6253854;22;20098;-92
2022/08/25 06:54:46;;;;;;;8.35;4.20;;;22.70;99.90;;;;;;6253716;22;20038;-92
2022/08/25 07:53:51;;;;;;;6.72;3.80;;;24.70;99.90;;;;;;6242336;23;20016;-92
2022/08/25 07:56:17;;;;;;;9.80;3.97;;;24.90;99.90;;;;;;6225290;23;20503;-93
2022/08/25 07:58:44;;;;;;;6.15;3.78;;;24.90;99.90;;;;;;6225768;23;20015;-91
2022/08/25 08:01:22;;;;;;;7.68;3.50;;;25.10;99.90;;;;;;6201957;23;20021;-90
2022/08/25 08:03:48;;;;;;;9.60;3.58;;;25.10;99.90;;;;;;6224706;23;20008;-91
2022/08/25 08:06:20;;;;;;;10.20;3.67;;;25.20;99.90;;;;;;6198574;23;20348;-92
2022/08/25 08:08:48;;;;;;;7.45;3.30;;;25.20;99.90;;;;;;6200569;23;20039;-89
2022/08/25 08:11:22;;;;;;;8.45;3.70;;;25.20;99.90;;;;;;6200868;23;20023;-92
2022/08/25 08:31:55;;;;;;;7.80;3.67;;;25.90;99.90;;;;;;6265817;22;20441;-92
2022/08/25 08:34:22;;;;;;;5.30;3.45;;;26.00;99.90;;;;;;6227575;22;20087;-92
2022/08/25 08:36:48;;;;;;;5.50;3.75;;;26.20;99.90;;;;;;6230786;22;20039;-91
2022/08/25 08:39:14;;;;;;;6.38;3.67;;;26.40;99.90;;;;;;6281102;22;20020;-91
2022/08/25 08:42:20;;;;;;;12.80;4.25;;;26.50;99.70;;;;;;6226182;22;20032;-90
2022/08/25 08:44:46;;;;;;;5.45;3.28;;;26.70;99.90;;;;;;6239936;23;20070;-91
2022/08/25 08:47:15;;;;;;;4.93;3.22;;;26.70;99.20;;;;;;6264286;22;20051;-91
2022/08/25 08:49:50;;;;;;;6.80;3.33;;;26.80;98.80;;;;;;6213494;23;20012;-90
2022/08/25 08:52:21;;;;;;;5.45;2.90;;;26.90;99.40;;;;;;6238380;22;20488;-92
2022/08/25 08:54:57;;;;;;;6.47;2.92;;;27.00;98.90;;;;;;6237874;23;20268;-92
2022/08/25 08:57:27;;;;;;;8.40;3.80;;;27.10;98.50;;;;;;6251337;22;20020;-88
2022/08/25 08:59:59;;;;;;;7.68;2.92;;;27.30;97.80;;;;;;6275940;22;20023;-87
2022/08/25 09:02:38;;;;;;;8.65;3.78;;;27.40;96.50;;;;;;6289182;22;20016;-91
2022/08/25 09:05:09;;;;;;;7.28;2.80;;;27.40;97.80;;;;;;6264833;22;20399;-92
2022/08/25 09:07:52;;;;;;;7.18;2.78;;;27.60;97.60;;;;;;6266077;22;20015;-92
2022/08/25 09:10:24;;;;;;;7.10;2.80;;;27.70;97.40;;;;;;6290965;22;20054;-92
2022/08/25 09:13:16;;;;;;;9.07;2.72;;;27.80;97.00;;;;;;6290356;22;20441;-91
2022/08/25 09:18:58;;;;;;;7.43;2.70;;;27.90;96.80;;;;;;6289617;22;20011;-90
2022/08/25 09:21:45;;;;;;;5.43;2.45;;;28.00;96.50;;;;;;6283003;22;20019;-90
2022/08/25 09:24:39;;;;;;;8.18;2.60;;;28.10;96.30;;;;;;6257661;22;20062;-90
2022/08/25 09:27:22;;;;;;;4.93;2.90;;;28.20;95.00;;;;;;6311774;22;20018;-90
2022/08/25 09:30:06;;;;;;;7.80;2.60;;;28.30;95.70;;;;;;6301921;22;19999;-92
2022/08/25 09:32:44;;;;;;;7.60;2.70;;;28.40;94.70;;;;;;6292874;22;20142;-90
2022/08/25 09:35:19;;;;;;;7.50;3.10;;;28.50;94.40;;;;;;6265598;22;20015;-91
2022/08/25 09:37:58;;;;;;;6.72;2.60;;;28.60;94.70;;;;;;6319331;22;20022;-89
2022/08/25 09:40:27;;;;;;;5.57;2.33;;;28.70;93.80;;;;;;6268097;22;20038;-90
2022/08/25 09:42:58;;;;;;;6.57;2.33;;;28.90;94.60;;;;;;6267656;22;20026;-90
2022/08/25 09:45:59;;;;;;;5.35;2.25;;;29.00;94.30;;;;;;6291710;22;20015;-89
2022/08/25 09:48:36;;;;;;;9.00;2.40;;;29.10;92.30;;;;;;6312014;22;20400;-89
2022/08/25 09:51:16;;;;;;;5.35;2.30;;;29.10;91.70;;;;;;6261012;22;20019;-88
2022/08/25 09:54:19;;;;;;;7.70;2.53;;;29.20;92.50;;;;;;6290469;22;20020;-90
2022/08/25 09:56:58;;;;;;;4.63;2.55;;;29.30;91.80;;;;;;6242446;22;20011;-91
2022/08/25 09:59:25;;;;;;;6.07;2.70;;;29.30;91.10;;;;;;6282197;22;20011;-91
2022/08/25 10:02:00;;;;;;;5.07;2.40;;;29.40;91.40;;;;;;6309541;22;20007;-91
2022/08/25 10:04:27;;;;;;;9.35;2.50;;;29.50;90.70;;;;;;6307159;22;20011;-91
2022/08/25 10:06:53;;;;;;;5.38;2.45;;;29.70;90.20;;;;;;6310320;22;20011;-90
2022/08/25 10:09:38;;;;;;;4.78;2.20;;;29.80;90.00;;;;;;6281228;22;20011;-90
2022/08/25 10:12:19;;;;;;;3.30;1.80;;;29.80;87.30;;;;;;6301127;22;20007;-91
2022/08/25 10:14:49;;;;;;;7.93;2.05;;;29.90;89.00;;;;;;6282706;22;20019;-92
2022/08/25 10:17:27;;;;;;;4.38;2.40;;;29.90;87.80;;;;;;6230128;22;20041;-91
2022/08/25 10:20:08;;;;;;;4.60;2.00;;;30.00;87.90;;;;;;6233544;22;20022;-92
2022/08/25 10:22:37;;;;;;;9.07;2.42;;;30.10;87.50;;;;;;6229456;22;20007;-93
2022/08/25 10:25:06;;;;;;;7.00;2.35;;;30.20;86.40;;;;;;6229815;22;20361;-93
2022/08/25 10:27:44;;;;;;;5.47;2.20;;;30.30;85.00;;;;;;6226837;22;20011;-92
2022/08/25 10:30:38;;;;;;;3.55;1.85;;;30.20;84.00;;;;;;6224754;22;20022;-94
2022/08/25 10:33:32;;;;;;;4.95;1.95;;;30.30;83.10;;;;;;6227189;22;20243;-94
2022/08/25 10:36:31;;;;;;;7.15;2.45;;;30.30;81.60;;;;;;6227334;22;20028;-92
2022/08/25 10:39:06;;;;;;;4.15;1.85;;;30.30;81.70;;;;;;6214677;22;20019;-94
2022/08/25 11:13:58;;;;;;;7.35;2.55;;;30.70;79.30;;;;;;6257547;22;20016;-88
2022/08/25 11:16:33;;;;;;;5.68;2.38;;;30.70;79.30;;;;;;6249652;22;20031;-89
2022/08/25 11:19:05;;;;;;;5.88;2.42;;;30.80;79.00;;;;;;6225468;22;20035;-90
2022/08/25 11:21:40;;;;;;;3.70;1.88;;;30.90;78.00;;;;;;6275851;22;20061;-87
2022/08/25 11:24:27;;;;;;;5.88;2.25;;;30.80;77.40;;;;;;6224733;22;20041;-90
2022/08/25 12:44:35;;;;;;;10.93;2.58;;;31.50;72.40;;;;;;6232645;22;20353;-92
2022/08/25 12:47:25;;;;;;;6.13;2.08;;;31.50;72.20;;;;;;6149446;23;20017;-92
2022/08/25 12:49:52;;;;;;;7.05;2.17;;;31.50;72.50;;;;;;6139724;23;20009;-92
2022/08/25 12:52:22;;;;;;;8.15;2.10;;;31.50;71.80;;;;;;6164445;23;20469;-92
2022/08/25 12:54:58;;;;;;;3.03;2.00;;;31.50;72.00;;;;;;6165299;23;20005;-92
2022/08/25 14:30:28;;;;;;;3.22;1.80;;;31.80;66.30;;;;;;6223793;23;20066;-91
2022/08/25 14:32:55;;;;;;;4.82;1.73;;;31.80;67.20;;;;;;6194232;23;20009;-90
2022/08/25 14:35:21;;;;;;;3.70;1.90;;;31.80;66.00;;;;;;6170591;23;20221;-91
2022/08/25 14:37:48;;;;;;;6.68;1.70;;;31.70;66.00;;;;;;6171721;23;20020;-91
2022/08/25 14:40:18;;;;;;;4.13;1.70;;;31.60;65.80;;;;;;6170364;23;20033;-91
2022/08/25 14:42:45;;;;;;;3.85;1.63;;;31.60;67.50;;;;;;6199752;22;20009;-91
2022/08/25 14:45:11;;;;;;;3.90;2.00;;;31.70;67.50;;;;;;6253828;22;20020;-91
2022/08/25 14:47:37;;;;;;;3.85;1.80;;;31.60;65.70;;;;;;6225652;22;20018;-91
2022/08/25 14:50:04;;;;;;;4.30;1.90;;;31.60;65.70;;;;;;6249954;22;20018;-90
2022/08/25 14:52:30;;;;;;;3.20;2.05;;;31.60;67.20;;;;;;6224945;22;20004;-91
2022/08/25 14:54:56;;;;;;;4.00;1.80;;;31.60;66.50;;;;;;6225437;22;20087;-91
2022/08/25 15:59:03;;;;;;;3.42;1.50;;;31.00;66.60;;;;;;6231088;22;20028;-90
2022/08/25 16:01:28;;;;;;;4.05;2.10;;;31.00;66.40;;;;;;6240088;22;20015;-91
2022/08/25 16:03:56;;;;;;;6.97;2.05;;;30.90;67.00;;;;;;6258483;22;20050;-91
2022/08/25 16:06:23;;;;;;;4.50;1.80;;;30.90;66.70;;;;;;6233961;22;20349;-91
2022/08/25 16:08:49;;;;;;;5.45;2.65;;;30.90;68.20;;;;;;6258728;22;20027;-91
2022/08/25 16:11:21;;;;;;;5.75;1.98;;;30.80;66.80;;;;;;6257057;22;20337;-90
2022/08/25 17:13:02;;;;;;;7.65;2.13;;;30.20;70.00;;;;;;6230832;22;20022;-90
2022/08/25 17:25:51;;;;;;;5.85;2.13;;;29.70;72.20;;;;;;6244445;22;20016;-87
2022/08/25 18:29:42;;;;;;;5.15;2.08;;;27.50;81.90;;;;;;6263929;22;20019;-89
2022/08/25 18:32:08;;;;;;;6.35;2.47;;;27.40;82.10;;;;;;6252305;22;20019;-89
2022/08/25 18:34:35;;;;;;;3.70;2.28;;;27.30;82.00;;;;;;6251848;22;20011;-89
2022/08/25 18:40:21;;;;;;;5.55;2.80;;;27.20;82.20;;;;;;6250505;22;20018;-89
2022/08/25 18:42:34;;;;;;;5.22;2.60;;;27.10;82.80;;;;;;6278849;22;20016;-89
2022/08/25 20:14:11;;;;;;;;;;;23.70;99.90;;;;;;6251227;22;20102;-89
2022/08/25 20:16:38;;;;;;;46.42;41.83;;;23.70;99.90;;;;;;6251257;22;19915;-89
2022/08/25 20:19:04;;;;;;;44.35;39.88;;;23.60;99.90;;;;;;6226469;22;20026;-89
2022/08/25 20:21:31;;;;;;;47.13;42.63;;;23.50;99.90;;;;;;6251745;22;20026;-88
2022/08/25 20:26:44;;;;;;;46.20;41.25;;;23.50;99.90;;;;;;6204774;22;20016;-90
2022/08/25 21:05:25;;;;;;;46.58;41.85;;;22.80;99.90;;;;;;6244099;22;20018;-90
2022/08/25 21:07:51;;;;;;;47.22;42.58;;;22.70;99.90;;;;;;6253261;22;20024;-89
2022/08/25 21:10:17;;;;;;;47.72;42.88;;;22.60;99.90;;;;;;6277435;22;20008;-90
2022/08/25 21:12:43;;;;;;;50.25;45.08;;;22.60;99.90;;;;;;6226878;22;20332;-92
2022/08/25 21:43:38;;;;;;;46.08;41.20;;;22.00;99.90;;;;;;6232871;22;20030;-92
2022/08/25 21:54:07;;;;;;;38.60;34.70;;;21.90;99.90;;;;;;6239128;22;20018;-90
2022/08/25 21:56:36;;;;;;;38.00;32.97;;;21.90;99.90;;;;;;6231445;23;20058;-92
2022/08/25 22:30:07;;;;;;;33.75;27.17;;;21.70;99.90;;;;;;6257393;22;20019;-87
2022/08/25 22:32:33;;;;;;;32.83;26.63;;;21.70;99.90;;;;;;6307734;22;20373;-88
2022/08/25 22:34:59;;;;;;;32.35;27.17;;;21.60;99.90;;;;;;6307505;22;20018;-88
2022/08/25 22:37:24;;;;;;;29.13;23.33;;;21.60;99.90;;;;;;6307234;22;20015;-86
2022/08/25 22:39:50;;;;;;;34.88;24.70;;;21.60;99.90;;;;;;6307850;22;20483;-89
2022/08/25 22:42:17;;;;;;;32.10;24.27;;;21.60;99.90;;;;;;6308768;22;20098;-87
2022/08/25 22:44:43;;;;;;;32.20;23.02;;;21.60;99.90;;;;;;6307671;22;20506;-88
2022/08/25 22:47:09;;;;;;;35.47;23.20;;;21.70;99.90;;;;;;6285969;22;20019;-90
2022/08/25 22:49:37;;;;;;;29.55;21.27;;;21.70;99.90;;;;;;6314780;22;20015;-90
2022/08/25 22:52:04;;;;;;;39.35;22.08;;;21.70;99.90;;;;;;6313602;22;20015;-90
2022/08/25 22:54:30;;;;;;;33.33;22.20;;;21.70;99.90;;;;;;6287112;22;20011;-90
2022/08/25 22:56:56;;;;;;;26.42;20.10;;;21.60;99.90;;;;;;6312284;22;20019;-90
2022/08/25 22:59:21;;;;;;;29.98;21.77;;;21.70;99.90;;;;;;6339639;22;20012;-89
2022/08/25 23:01:47;;;;;;;29.73;19.42;;;21.70;99.90;;;;;;6288626;22;20021;-89
2022/08/25 23:04:13;;;;;;;31.08;19.98;;;21.60;99.90;;;;;;6286655;22;20064;-89
2022/08/25 23:06:39;;;;;;;30.90;20.60;;;21.60;99.90;;;;;;6312920;22;20314;-88
2022/08/25 23:09:07;;;;;;;28.42;18.55;;;21.60;99.90;;;;;;6312080;22;20015;-89
2022/08/25 23:11:35;;;;;;;25.35;18.08;;;21.60;99.90;;;;;;6285664;22;20012;-89
2022/08/25 23:14:01;;;;;;;24.65;18.20;;;21.60;99.90;;;;;;6285234;22;20344;-90
2022/08/25 23:16:27;;;;;;;28.08;16.58;;;21.60;99.90;;;;;;6334682;22;20011;-88
2022/08/25 23:18:53;;;;;;;26.73;15.98;;;21.60;99.90;;;;;;6338817;22;20037;-90
2022/08/25 23:24:03;;;;;;;29.00;17.95;;;21.50;99.90;;;;;;6310504;22;20027;-89
2022/08/25 23:26:33;;;;;;;24.88;15.55;;;21.60;99.90;;;;;;6284938;22;20026;-90
2022/08/25 23:43:59;;;;;;;24.50;14.30;;;21.30;99.90;;;;;;6223356;22;20529;-82
2022/08/25 23:46:28;;;;;;;22.33;13.02;;;21.30;99.90;;;;;;6187793;23;20375;-83
2022/08/25 23:48:54;;;;;;;19.20;11.93;;;21.30;99.90;;;;;;6216855;23;20016;-83
2022/08/25 23:51:26;;;;;;;19.98;12.20;;;21.30;99.90;;;;;;6218185;23;20338;-83
2022/08/25 23:53:53;;;;;;;20.25;12.02;;;21.30;99.90;;;;;;6219101;23;20012;-84
2022/08/25 23:56:21;;;;;;;17.67;12.30;;;21.20;99.90;;;;;;6217664;23;20020;-84
2022/08/25 23:58:46;;;;;;;19.77;11.82;;;21.20;99.90;;;;;;6217888;23;20016;-84
